createdAt,value
2019-04-14T00:00:44.725Z,4.97
2019-04-14T00:03:32.307Z,3.67
2019-04-14T00:06:02.662Z,3.23
2019-04-14T00:08:30.643Z,5.03
2019-04-14T00:10:59.407Z,3.60
2019-04-14T00:13:28.452Z,3.33
2019-04-14T00:15:56.674Z,6.47
2019-04-14T00:18:25.108Z,3.73
2019-04-14T00:20:53.428Z,3.37
2019-04-14T00:23:21.625Z,3.10
2019-04-14T00:25:50.108Z,7.43
2019-04-14T00:28:18.472Z,3.50
2019-04-14T00:30:47.006Z,3.27
2019-04-14T00:33:16.923Z,5.47
2019-04-14T00:36:19.785Z,5.63
2019-04-14T00:38:50.019Z,4.20
2019-04-14T00:41:41.320Z,3.83
2019-04-14T00:44:10.024Z,10.13
2019-04-14T00:46:47.472Z,3.77
2019-04-14T00:49:15.777Z,5.83
2019-04-14T00:51:44.099Z,3.10
2019-04-14T00:54:13.243Z,5.27
2019-04-14T00:56:41.410Z,3.90
2019-04-14T00:59:09.346Z,4.27
2019-04-14T01:01:37.314Z,4.20
2019-04-14T01:04:05.584Z,4.00
2019-04-14T01:06:33.661Z,3.30
2019-04-14T01:09:02.137Z,4.43
2019-04-14T01:11:31.273Z,4.30
2019-04-14T01:14:01.582Z,4.03
2019-04-14T01:16:29.822Z,6.17
2019-04-14T01:18:58.059Z,4.90
2019-04-14T01:21:26.385Z,7.47
2019-04-14T01:23:54.547Z,4.27
2019-04-14T01:26:22.615Z,4.47
2019-04-14T01:28:50.518Z,7.63
2019-04-14T01:31:18.508Z,3.90
2019-04-14T01:33:46.973Z,3.33
2019-04-14T01:36:14.914Z,3.60
2019-04-14T01:38:42.855Z,4.00
2019-04-14T01:41:10.990Z,3.77
2019-04-14T01:43:38.921Z,4.73
2019-04-14T01:46:14.793Z,5.17
2019-04-14T01:48:36.762Z,4.83
2019-04-14T01:51:22.812Z,4.50
2019-04-14T01:54:10.636Z,4.00
2019-04-14T01:56:58.108Z,4.03
2019-04-14T01:59:26.323Z,3.83
2019-04-14T02:01:55.063Z,3.93
2019-04-14T02:04:23.124Z,5.53
2019-04-14T02:06:51.209Z,4.13
2019-04-14T02:09:19.026Z,5.07
2019-04-14T02:11:46.990Z,3.80
2019-04-14T02:14:14.928Z,4.57
2019-04-14T02:16:48.663Z,3.67
2019-04-14T02:19:13.214Z,3.60
2019-04-14T02:21:41.315Z,5.57
2019-04-14T02:24:09.285Z,4.50
2019-04-14T02:26:37.361Z,3.37
2019-04-14T02:29:05.745Z,6.10
2019-04-14T02:32:01.687Z,4.17
2019-04-14T02:34:34.158Z,4.07
2019-04-14T02:39:38.926Z,3.80
2019-04-14T02:42:10.442Z,4.57
2019-04-14T02:47:34.110Z,3.77
2019-04-14T02:49:36.356Z,3.50
2019-04-14T02:52:04.324Z,3.87
2019-04-14T02:54:51.797Z,3.47
2019-04-14T02:57:01.344Z,4.90
2019-04-14T02:59:29.010Z,4.70
2019-04-14T03:02:20.880Z,3.40
2019-04-14T03:04:34.040Z,5.50
2019-04-14T03:09:38.798Z,3.30
2019-04-14T03:12:01.681Z,3.60
2019-04-14T03:14:32.484Z,3.73
2019-04-14T03:20:07.020Z,5.07
2019-04-14T03:22:37.744Z,4.40
2019-04-14T03:25:33.706Z,4.47
2019-04-14T03:28:31.869Z,3.90
2019-04-14T03:34:06.269Z,3.63
2019-04-14T03:37:39.630Z,5.33
2019-04-14T03:38:49.746Z,5.80
2019-04-14T03:41:17.429Z,4.10
2019-04-14T03:43:48.390Z,4.43
2019-04-14T03:46:27.426Z,3.23
2019-04-14T03:48:55.967Z,4.47
2019-04-14T03:51:10.174Z,6.13
2019-04-14T03:53:32.124Z,3.83
2019-04-14T03:56:04.220Z,4.90
2019-04-14T03:58:29.798Z,4.30
2019-04-14T04:00:57.860Z,4.27
2019-04-14T04:03:26.091Z,4.33
2019-04-14T04:05:54.287Z,4.47
2019-04-14T04:08:22.439Z,4.43
2019-04-14T04:10:51.090Z,5.00
2019-04-14T04:13:19.404Z,4.90
2019-04-14T04:15:47.662Z,5.13
2019-04-14T04:18:24.147Z,6.20
2019-04-14T04:21:09.950Z,4.73
2019-04-14T04:24:00.247Z,5.57
2019-04-14T04:26:49.581Z,4.77
2019-04-14T04:29:24.419Z,5.43
2019-04-14T04:32:12.206Z,5.47
2019-04-14T04:35:02.485Z,4.00
2019-04-14T04:37:34.495Z,5.33
2019-04-14T04:40:07.355Z,4.33
2019-04-14T04:42:35.187Z,4.33
2019-04-14T04:45:03.946Z,4.97
2019-04-14T04:47:31.895Z,7.03
2019-04-14T04:50:00.061Z,5.27
2019-04-14T04:52:28.151Z,6.80
2019-04-14T04:54:56.219Z,4.43
2019-04-14T04:57:24.288Z,4.97
2019-04-14T04:59:52.335Z,5.57
2019-04-14T05:02:20.403Z,4.47
2019-04-14T05:04:48.435Z,5.30
2019-04-14T05:07:16.666Z,4.87
2019-04-14T05:10:08.920Z,5.43
2019-04-14T05:12:54.282Z,7.13
2019-04-14T05:15:42.968Z,6.43
2019-04-14T05:18:20.022Z,7.57
2019-04-14T05:20:48.754Z,7.77
2019-04-14T05:23:17.009Z,7.27
2019-04-14T05:25:45.219Z,7.10
2019-04-14T05:28:13.523Z,12.20
2019-04-14T05:30:41.617Z,11.07
2019-04-14T05:33:09.610Z,13.13
2019-04-14T05:35:38.011Z,12.30
2019-04-14T05:38:06.238Z,12.00
2019-04-14T05:40:34.553Z,11.83
2019-04-14T05:43:02.591Z,11.97
2019-04-14T05:45:30.667Z,16.13
2019-04-14T05:47:58.908Z,15.10
2019-04-14T05:50:27.259Z,16.30
2019-04-14T05:52:55.739Z,12.77
2019-04-14T05:55:24.188Z,13.57
2019-04-14T05:57:52.536Z,16.57
2019-04-14T06:00:21.183Z,15.00
2019-04-14T06:02:50.544Z,16.13
2019-04-14T06:05:18.979Z,16.77
2019-04-14T06:07:47.123Z,18.83
2019-04-14T06:10:14.974Z,19.13
2019-04-14T06:12:44.333Z,30.80
2019-04-14T06:15:12.242Z,32.40
2019-04-14T06:17:40.111Z,17.63
2019-04-14T06:20:07.949Z,12.40
2019-04-14T06:22:35.858Z,12.10
2019-04-14T06:25:05.835Z,9.67
2019-04-14T06:27:34.080Z,7.83
2019-04-14T06:30:18.734Z,7.20
2019-04-14T06:32:47.118Z,9.87
2019-04-14T06:35:37.142Z,7.60
2019-04-14T06:38:07.354Z,6.83
2019-04-14T06:40:48.027Z,6.30
2019-04-14T06:43:16.097Z,4.83
2019-04-14T06:45:43.975Z,5.70
2019-04-14T06:48:11.960Z,4.50
2019-04-14T06:50:39.966Z,5.23
2019-04-14T06:53:07.871Z,4.67
2019-04-14T06:55:35.845Z,4.80
2019-04-14T06:58:04.046Z,5.80
2019-04-14T07:00:32.154Z,5.17
2019-04-14T07:03:00.262Z,9.20
2019-04-14T07:05:28.273Z,7.23
2019-04-14T07:07:57.366Z,8.27
2019-04-14T07:10:25.602Z,7.40
2019-04-14T07:12:53.538Z,8.07
2019-04-14T07:15:21.338Z,9.30
2019-04-14T07:17:49.330Z,6.03
2019-04-14T07:20:17.289Z,8.17
2019-04-14T07:22:45.158Z,11.57
2019-04-14T07:25:13.007Z,8.90
2019-04-14T07:27:40.947Z,6.17
2019-04-14T07:30:27.537Z,10.97
2019-04-14T07:33:23.573Z,7.60
2019-04-14T07:36:05.403Z,6.10
2019-04-14T07:38:39.748Z,5.33
2019-04-14T07:41:26.166Z,5.97
2019-04-14T07:44:09.563Z,8.57
2019-04-14T07:46:59.855Z,6.83
2019-04-14T07:49:53.266Z,11.53
2019-04-14T07:52:30.722Z,9.10
2019-04-14T07:55:23.038Z,4.20
2019-04-14T07:58:25.351Z,4.70
2019-04-14T08:01:00.159Z,4.93
2019-04-14T08:03:50.495Z,8.07
2019-04-14T08:06:18.921Z,9.50
2019-04-14T08:08:46.760Z,5.30
2019-04-14T08:11:14.420Z,4.90
2019-04-14T08:13:42.351Z,6.57
2019-04-14T08:16:11.615Z,7.67
2019-04-14T08:18:39.505Z,5.93
2019-04-14T08:21:07.372Z,5.03
2019-04-14T08:23:35.301Z,4.87
2019-04-14T08:26:03.372Z,7.57
2019-04-14T08:28:31.287Z,7.53
2019-04-14T08:30:59.324Z,4.57
2019-04-14T08:33:27.178Z,5.53
2019-04-14T08:35:55.098Z,6.27
2019-04-14T08:38:23.015Z,7.83
2019-04-14T08:40:50.895Z,5.53
2019-04-14T08:43:33.240Z,9.20
2019-04-14T08:46:19.597Z,6.43
2019-04-14T08:48:55.357Z,4.27
2019-04-14T08:51:46.562Z,3.37
2019-04-14T08:54:22.017Z,4.70
2019-04-14T08:56:53.833Z,7.00
2019-04-14T08:59:29.390Z,3.77
2019-04-14T09:02:14.893Z,5.07
2019-04-14T09:05:00.231Z,3.90
2019-04-14T09:07:38.901Z,3.30
2019-04-14T09:10:18.874Z,2.90
2019-04-14T09:12:48.248Z,3.33
2019-04-14T09:15:16.224Z,2.93
2019-04-14T09:17:44.235Z,3.40
2019-04-14T09:20:31.259Z,3.27
2019-04-14T09:22:59.375Z,3.80
2019-04-14T09:25:27.532Z,2.20
2019-04-14T09:27:55.588Z,3.53
2019-04-14T09:30:23.674Z,2.53
2019-04-14T09:32:51.512Z,4.27
2019-04-14T09:35:19.488Z,5.43
2019-04-14T09:37:47.519Z,3.37
2019-04-14T09:40:15.328Z,3.03
2019-04-14T09:42:43.411Z,2.50
2019-04-14T09:45:12.392Z,2.50
2019-04-14T09:47:40.255Z,3.87
2019-04-14T09:50:12.219Z,3.50
2019-04-14T09:52:40.306Z,1.87
2019-04-14T09:55:08.154Z,2.13
2019-04-14T09:57:36.118Z,1.67
2019-04-14T10:00:05.868Z,2.87
2019-04-14T10:02:34.250Z,2.30
2019-04-14T10:05:21.324Z,2.57
2019-04-14T10:07:49.219Z,2.43
2019-04-14T10:10:17.077Z,1.67
2019-04-14T10:12:45.086Z,2.37
2019-04-14T10:15:12.997Z,2.90
2019-04-14T10:17:42.695Z,1.30
2019-04-14T10:20:10.673Z,3.10
2019-04-14T10:22:38.641Z,1.50
2019-04-14T10:25:06.615Z,2.87
2019-04-14T10:27:34.438Z,1.60
2019-04-14T10:30:02.571Z,1.63
2019-04-14T10:32:30.433Z,1.80
2019-04-14T10:34:58.579Z,1.70
2019-04-14T10:37:26.453Z,3.07
2019-04-14T10:39:54.668Z,1.90
2019-04-14T10:42:22.665Z,4.70
2019-04-14T10:44:50.663Z,4.00
2019-04-14T10:47:18.538Z,3.40
2019-04-14T10:49:46.622Z,2.03
2019-04-14T10:52:14.493Z,8.73
2019-04-14T10:54:45.460Z,1.90
2019-04-14T10:57:13.503Z,1.63
2019-04-14T10:59:41.342Z,1.83
2019-04-14T11:02:09.428Z,4.23
2019-04-14T11:04:37.502Z,2.07
2019-04-14T11:07:09.084Z,4.33
2019-04-14T11:09:36.903Z,3.30
2019-04-14T11:12:05.132Z,3.60
2019-04-14T11:14:33.251Z,3.50
2019-04-14T11:17:01.238Z,3.53
2019-04-14T11:19:30.999Z,1.40
2019-04-14T11:21:58.833Z,3.47
2019-04-14T11:24:26.777Z,1.67
2019-04-14T11:26:54.643Z,2.70
2019-04-14T11:29:22.817Z,1.30
2019-04-14T11:32:13.295Z,1.20
2019-04-14T11:34:49.045Z,2.85
2019-04-14T11:37:38.951Z,1.77
2019-04-14T11:40:09.108Z,3.72
2019-04-14T11:42:37.128Z,8.08
2019-04-14T11:45:05.233Z,4.65
2019-04-14T11:47:33.175Z,2.40
2019-04-14T11:50:01.187Z,2.87
2019-04-14T11:52:29.144Z,1.90
2019-04-14T11:54:57.051Z,2.10
2019-04-14T11:57:25.020Z,5.67
2019-04-14T12:00:14.939Z,5.53
2019-04-14T12:03:08.472Z,1.15
2019-04-14T12:05:56.351Z,1.82
2019-04-14T12:08:30.672Z,4.00
2019-04-14T12:10:58.823Z,4.17
2019-04-14T12:13:26.897Z,3.37
2019-04-14T12:16:14.045Z,1.42
2019-04-14T12:18:42.184Z,2.42
2019-04-14T12:21:10.244Z,3.35
2019-04-14T12:23:38.326Z,1.80
2019-04-14T12:26:06.304Z,1.50
2019-04-14T12:28:34.467Z,2.25
2019-04-14T12:31:03.991Z,4.92
2019-04-14T12:33:32.032Z,2.20
2019-04-14T12:35:59.910Z,5.85
2019-04-14T12:38:27.916Z,5.33
2019-04-14T12:40:57.792Z,2.60
2019-04-14T12:43:33.158Z,2.22
2019-04-14T12:46:20.074Z,2.07
2019-04-14T12:48:52.929Z,2.00
2019-04-14T12:51:24.387Z,2.63
2019-04-14T12:53:52.559Z,1.33
2019-04-14T12:56:23.250Z,2.83
2019-04-14T12:59:10.496Z,2.50
2019-04-14T13:01:43.491Z,3.50
2019-04-14T13:04:11.639Z,2.73
2019-04-14T13:06:39.585Z,2.60
2019-04-14T13:09:07.655Z,1.87
2019-04-14T13:11:35.774Z,2.60
2019-04-14T13:14:03.729Z,1.67
2019-04-14T13:16:31.666Z,1.83
2019-04-14T13:18:59.570Z,1.70
2019-04-14T13:21:27.543Z,2.97
2019-04-14T13:23:55.561Z,3.30
2019-04-14T13:26:23.496Z,2.10
2019-04-14T13:28:51.453Z,3.73
2019-04-14T13:31:19.376Z,2.67
2019-04-14T13:33:47.493Z,2.10
2019-04-14T13:36:15.374Z,2.13
2019-04-14T13:38:43.386Z,2.00
2019-04-14T13:41:11.286Z,2.30
2019-04-14T13:43:39.163Z,1.43
2019-04-14T13:46:08.125Z,2.07
2019-04-14T13:48:36.002Z,3.13
2019-04-14T13:51:04.010Z,2.57
2019-04-14T13:53:32.060Z,2.50
2019-04-14T13:56:00.129Z,5.37
2019-04-14T13:58:28.116Z,2.20
2019-04-14T14:00:56.102Z,3.43
2019-04-14T14:03:24.043Z,2.73
2019-04-14T14:05:51.988Z,2.57
2019-04-14T14:08:20.022Z,2.43
2019-04-14T14:10:48.158Z,3.03
2019-04-14T14:13:29.423Z,3.67
2019-04-14T14:16:16.744Z,2.80
2019-04-14T14:19:12.834Z,3.00
2019-04-14T14:21:53.878Z,1.97
2019-04-14T14:24:41.194Z,2.27
2019-04-14T14:27:09.711Z,2.23
2019-04-14T14:29:37.704Z,1.30
2019-04-14T14:32:07.743Z,1.93
2019-04-14T14:34:35.806Z,3.70
2019-04-14T14:37:03.728Z,2.33
2019-04-14T14:39:32.771Z,1.70
2019-04-14T14:42:00.944Z,1.93
2019-04-14T14:44:35.005Z,2.00
2019-04-14T14:47:14.020Z,1.87
2019-04-14T14:50:07.481Z,2.07
2019-04-14T14:52:36.579Z,1.33
2019-04-14T14:55:05.124Z,1.80
2019-04-14T14:57:33.193Z,3.10
2019-04-14T15:00:01.049Z,1.90
2019-04-14T15:02:28.930Z,2.23
2019-04-14T15:04:57.014Z,2.20
2019-04-14T15:07:24.947Z,3.30
2019-04-14T15:09:52.815Z,2.50
2019-04-14T15:12:22.659Z,2.60
2019-04-14T15:14:50.615Z,4.30
2019-04-14T15:17:19.025Z,2.43
2019-04-14T15:19:47.265Z,2.63
2019-04-14T15:22:15.364Z,2.60
2019-04-14T15:24:44.429Z,2.10
2019-04-14T15:27:12.602Z,2.00
2019-04-14T15:29:40.555Z,2.60
2019-04-14T15:32:08.554Z,3.40
2019-04-14T15:34:36.533Z,3.03
2019-04-14T15:37:04.669Z,2.10
2019-04-14T15:39:32.661Z,4.47
2019-04-14T15:42:00.562Z,3.80
2019-04-14T15:44:28.471Z,2.40
2019-04-14T15:46:56.555Z,3.57
2019-04-14T15:49:27.666Z,4.07
2019-04-14T15:52:01.695Z,3.57
2019-04-14T15:54:41.405Z,2.83
2019-04-14T15:57:25.853Z,3.20
2019-04-14T16:00:13.334Z,3.10
2019-04-14T16:02:47.126Z,3.67
2019-04-14T16:05:39.852Z,2.30
2019-04-14T16:08:21.101Z,2.27
2019-04-14T16:10:52.572Z,3.23
2019-04-14T16:13:28.994Z,3.17
2019-04-14T16:16:16.550Z,2.67
2019-04-14T16:18:57.104Z,2.80
2019-04-14T16:21:25.082Z,3.77
2019-04-14T16:23:52.908Z,2.80
2019-04-14T16:26:29.160Z,2.23
2019-04-14T16:29:31.294Z,2.10
2019-04-14T16:32:17.329Z,2.73
2019-04-14T16:34:57.689Z,4.93
2019-04-14T16:37:25.597Z,3.93
2019-04-14T16:39:53.308Z,4.03
2019-04-14T16:42:21.264Z,3.03
2019-04-14T16:44:49.190Z,3.73
2019-04-14T16:47:17.326Z,4.37
2019-04-14T16:49:45.281Z,3.33
2019-04-14T16:52:41.751Z,3.10
2019-04-14T16:55:29.795Z,1.90
2019-04-14T16:58:20.367Z,2.13
2019-04-14T17:00:52.641Z,2.97
2019-04-14T17:03:20.708Z,2.03
2019-04-14T17:05:48.718Z,3.00
2019-04-14T17:08:16.680Z,2.60
2019-04-14T17:10:44.818Z,5.17
2019-04-14T17:13:12.729Z,2.13
2019-04-14T17:15:58.042Z,2.57
2019-04-14T17:18:51.201Z,2.80
2019-04-14T17:21:44.521Z,4.07
2019-04-14T17:24:34.878Z,1.93
2019-04-14T17:27:17.794Z,2.43
2019-04-14T17:30:11.492Z,2.80
2019-04-14T17:33:01.905Z,5.17
2019-04-14T17:35:45.913Z,1.87
2019-04-14T17:38:20.822Z,2.70
2019-04-14T17:41:26.618Z,1.97
2019-04-14T17:44:01.009Z,3.43
2019-04-14T17:46:48.315Z,2.93
2019-04-14T17:49:47.409Z,3.27
2019-04-14T17:52:46.835Z,1.73
2019-04-14T17:55:34.446Z,1.10
2019-04-14T17:58:15.444Z,1.73
2019-04-14T18:01:02.640Z,1.03
2019-04-14T18:03:52.744Z,1.77
2019-04-14T18:06:34.599Z,7.93
2019-04-14T18:09:29.014Z,5.93
2019-04-14T18:12:15.535Z,1.90
2019-04-14T18:15:01.212Z,3.87
2019-04-14T18:17:57.376Z,2.00
2019-04-14T18:20:56.847Z,3.60
2019-04-14T18:23:24.919Z,6.20
2019-04-14T18:25:52.793Z,2.53
2019-04-14T18:28:42.320Z,1.30
2019-04-14T18:31:16.548Z,2.40
2019-04-14T18:34:03.826Z,6.33
2019-04-14T18:36:43.027Z,1.40
2019-04-14T18:39:30.395Z,3.50
2019-04-14T18:42:17.678Z,1.97
2019-04-14T18:45:04.483Z,1.90
2019-04-14T18:47:50.458Z,1.93
2019-04-14T18:50:36.363Z,1.63
2019-04-14T18:53:07.979Z,1.50
2019-04-14T18:55:47.207Z,4.53
2019-04-14T18:58:43.438Z,2.73
2019-04-14T19:01:16.826Z,2.27
2019-04-14T19:03:44.846Z,6.07
2019-04-14T19:06:12.922Z,2.43
2019-04-14T19:08:40.888Z,2.17
2019-04-14T19:11:46.023Z,2.17
2019-04-14T19:14:17.931Z,1.37
2019-04-14T19:16:49.554Z,5.70
2019-04-14T19:19:18.746Z,4.77
2019-04-14T19:21:46.778Z,4.33
2019-04-14T19:24:14.985Z,2.77
2019-04-14T19:26:43.001Z,4.13
2019-04-14T19:29:13.017Z,1.57
2019-04-14T19:31:41.136Z,0.90
2019-04-14T19:34:09.317Z,1.20
2019-04-14T19:36:37.483Z,0.70
2019-04-14T19:39:08.007Z,0.87
2019-04-14T19:41:36.193Z,0.80
2019-04-14T19:44:04.372Z,1.23
2019-04-14T19:46:32.777Z,2.13
2019-04-14T19:49:00.916Z,2.20
2019-04-14T19:51:28.988Z,4.80
2019-04-14T19:53:57.366Z,2.53
2019-04-14T19:56:25.949Z,3.23
2019-04-14T19:58:56.067Z,9.80
2019-04-14T20:01:25.322Z,5.03
2019-04-14T20:03:54.083Z,4.57
2019-04-14T20:06:23.560Z,3.97
2019-04-14T20:08:53.294Z,4.70
2019-04-14T20:11:31.720Z,7.60
2019-04-14T20:14:00.150Z,2.20
2019-04-14T20:17:05.943Z,2.13
2019-04-14T20:19:57.770Z,4.17
2019-04-14T20:22:54.476Z,3.90
2019-04-14T20:25:33.802Z,1.27
2019-04-14T20:28:07.208Z,1.87
2019-04-14T20:30:42.241Z,1.60
2019-04-14T20:33:10.417Z,1.47
2019-04-14T20:35:38.486Z,1.93
2019-04-14T20:38:07.744Z,1.40
2019-04-14T20:40:35.904Z,0.70
2019-04-14T20:43:03.910Z,2.23
2019-04-14T20:45:32.099Z,1.60
2019-04-14T20:48:00.366Z,0.90
2019-04-14T20:50:28.448Z,1.77
2019-04-14T20:52:56.400Z,2.03
2019-04-14T20:55:24.418Z,0.97
2019-04-14T20:57:52.338Z,2.70
2019-04-14T21:00:20.784Z,1.00
2019-04-14T21:03:06.877Z,0.80
2019-04-14T21:05:56.501Z,3.17
2019-04-14T21:08:47.200Z,0.80
2019-04-14T21:11:22.447Z,1.27
2019-04-14T21:14:08.261Z,3.47
2019-04-14T21:16:54.183Z,2.37
2019-04-14T21:19:27.155Z,2.70
2019-04-14T21:22:10.532Z,2.00
2019-04-14T21:25:06.762Z,3.60
2019-04-14T21:27:50.501Z,1.73
2019-04-14T21:30:25.278Z,2.10
2019-04-14T21:33:13.493Z,1.37
2019-04-14T21:36:04.171Z,7.67
2019-04-14T21:38:50.981Z,2.00
2019-04-14T21:41:22.756Z,1.50
2019-04-14T21:43:50.885Z,1.77
2019-04-14T21:46:18.994Z,1.63
2019-04-14T21:48:46.870Z,4.20
2019-04-14T21:51:16.735Z,1.20
2019-04-14T21:53:45.414Z,3.30
2019-04-14T21:56:13.930Z,4.03
2019-04-14T21:59:00.536Z,1.70
2019-04-14T22:02:10.372Z,2.37
2019-04-14T22:04:56.402Z,2.03
2019-04-14T22:07:35.316Z,1.53
2019-04-14T22:10:10.114Z,0.80
2019-04-14T22:12:38.209Z,1.03
2019-04-14T22:15:06.450Z,1.50
2019-04-14T22:17:34.555Z,1.17
2019-04-14T22:20:02.656Z,1.20
2019-04-14T22:22:30.791Z,2.60
2019-04-14T22:24:58.760Z,1.10
2019-04-14T22:27:26.661Z,0.97
2019-04-14T22:29:54.372Z,1.33
2019-04-14T22:32:22.627Z,1.10
2019-04-14T22:34:50.586Z,2.03
2019-04-14T22:37:18.742Z,1.43
2019-04-14T22:39:46.600Z,1.20
2019-04-14T22:42:14.734Z,1.40
2019-04-14T22:44:42.590Z,2.33
2019-04-14T22:47:10.662Z,1.23
2019-04-14T22:49:38.665Z,2.53
2019-04-14T22:52:06.898Z,1.40
2019-04-14T22:54:35.098Z,1.40
2019-04-14T22:57:03.302Z,1.03
2019-04-14T22:59:31.238Z,0.93
2019-04-14T23:02:11.090Z,6.97
2019-04-14T23:04:47.071Z,1.20
2019-04-14T23:07:34.607Z,2.13
2019-04-14T23:10:17.043Z,1.53
2019-04-14T23:13:04.349Z,1.67
2019-04-14T23:16:00.406Z,0.87
2019-04-14T23:18:53.882Z,2.83
2019-04-14T23:21:40.598Z,0.73
2019-04-14T23:24:14.384Z,1.27
2019-04-14T23:26:52.426Z,2.13
2019-04-14T23:29:12.119Z,1.20
2019-04-14T23:31:40.256Z,0.70
2019-04-14T23:34:09.330Z,0.67
2019-04-14T23:36:37.260Z,0.80
2019-04-14T23:39:08.358Z,1.63
2019-04-14T23:41:36.430Z,0.90
2019-04-14T23:44:04.430Z,1.63
2019-04-14T23:46:32.483Z,0.70
2019-04-14T23:49:00.508Z,1.50
2019-04-14T23:51:28.367Z,3.27
2019-04-14T23:53:56.328Z,2.60
2019-04-14T23:56:24.228Z,1.60
2019-04-14T23:58:52.177Z,1.30
